Time;durP1;ratioP1;P1;durP2;ratioP2;P2;SDS_P1;SDS_P2;PMS_P1;PMS_P2;Temp;Humidity;BMP_temperature;BMP_pressure;BME280_temperature;BME280_humidity;BME280_pressure;Samples;Min_cycle;Max_cycle;Signal;HPM_P1;HPM_P2
2022/01/06 00:00:14;;;;;;;37.45;21.90;;;5.30;83.50;;;4.09;79.52;94991.81;3968992;34;20815;-84
2022/01/06 00:02:40;;;;;;;39.42;21.48;;;5.40;83.60;;;4.07;79.62;94993.94;3991240;34;20369;-85
2022/01/06 00:05:07;;;;;;;33.13;21.02;;;5.30;83.60;;;4.08;79.22;94999.13;3969230;34;20288;-85
2022/01/06 00:07:33;;;;;;;38.60;21.50;;;5.30;83.70;;;4.08;79.50;95006.41;3948263;34;20333;-85
2022/01/06 00:10:00;;;;;;;36.70;22.02;;;5.30;83.70;;;4.08;79.39;95014.53;3967533;34;20268;-85
2022/01/06 00:12:38;;;;;;;34.00;21.30;;;5.30;83.50;;;4.08;79.03;95019.97;3966693;34;20010;-84
2022/01/06 00:15:23;;;;;;;38.05;22.13;;;5.30;83.50;;;4.06;79.48;95025.63;3966642;34;20010;-84
2022/01/06 00:25:43;;;;;;;41.05;22.63;;;5.30;83.50;;;4.07;79.48;95021.03;3942261;35;20313;-84
2022/01/06 00:28:09;;;;;;;34.90;20.88;;;5.30;83.60;;;4.06;78.94;95024.84;3941332;35;20299;-85
2022/01/06 00:30:36;;;;;;;39.03;22.17;;;5.30;83.40;;;4.06;79.63;95028.34;3920510;35;20335;-84
2022/01/06 00:33:02;;;;;;;38.47;21.25;;;5.30;83.80;;;4.06;79.74;95025.63;3944672;35;20014;-85
2022/01/06 00:35:28;;;;;;;32.15;19.42;;;5.30;83.80;;;4.06;79.88;95024.84;3961435;35;20010;-85
2022/01/06 00:37:55;;;;;;;35.55;20.80;;;5.30;84.10;;;4.06;79.47;95019.44;3961901;35;20292;-84
2022/01/06 00:40:21;;;;;;;32.35;20.15;;;5.30;84.20;;;4.05;79.97;95020.50;3941722;35;20206;-85
2022/01/06 00:42:47;;;;;;;33.47;19.90;;;5.30;84.10;;;4.06;79.76;95011.31;3948169;34;20243;-85
2022/01/06 00:45:14;;;;;;;34.08;20.75;;;5.30;84.10;;;4.05;79.94;95023.19;3965258;34;20282;-85
2022/01/06 00:47:40;;;;;;;30.65;19.13;;;5.30;84.00;;;4.05;79.41;95018.59;3965839;34;19998;-85
2022/01/06 00:50:07;;;;;;;33.60;19.58;;;5.30;83.80;;;4.05;79.42;95023.19;3988653;34;20010;-85
2022/01/06 00:52:34;;;;;;;33.13;19.50;;;5.30;83.60;;;4.05;79.55;95013.19;3967362;34;20577;-85
2022/01/06 00:55:00;;;;;;;36.42;20.45;;;5.30;83.50;;;4.04;79.15;95006.13;3966212;34;20380;-84
2022/01/06 00:57:26;;;;;;;34.05;20.10;;;5.30;83.60;;;4.03;79.76;95012.63;3958668;34;20384;-84
2022/01/06 00:59:52;;;;;;;34.70;20.15;;;5.30;84.10;;;4.03;79.25;95014.53;3987225;34;20390;-85
2022/01/06 01:02:19;;;;;;;34.83;19.65;;;5.30;83.80;;;4.04;79.47;95018.84;3977504;35;20363;-84
2022/01/06 01:04:45;;;;;;;37.97;20.52;;;5.30;83.70;;;4.03;79.73;95015.31;3920501;35;20309;-84
2022/01/06 01:07:11;;;;;;;36.13;20.95;;;5.30;83.90;;;4.02;79.97;95007.47;3920108;35;20321;-84
2022/01/06 01:09:38;;;;;;;38.22;20.90;;;5.30;84.00;;;4.03;79.33;95018.03;3962832;35;20302;-85
2022/01/06 01:12:04;;;;;;;36.40;20.00;;;5.30;83.60;;;4.03;79.72;95028.84;3904005;35;20292;-84
2022/01/06 01:14:32;;;;;;;39.03;21.73;;;5.30;83.90;;;4.02;79.51;95027.22;3966697;34;20325;-84
2022/01/06 01:17:01;;;;;;;36.63;21.77;;;5.30;84.10;;;4.03;79.79;95033.47;3946450;35;20002;-85
2022/01/06 01:19:30;;;;;;;35.63;21.17;;;5.30;84.20;;;4.03;79.37;95028.84;3947294;35;20390;-85
2022/01/06 01:21:57;;;;;;;41.60;21.27;;;5.30;83.70;;;4.01;79.54;95033.72;3946624;35;20006;-84
2022/01/06 01:24:23;;;;;;;40.70;21.23;;;5.30;83.90;;;4.01;79.68;95035.63;3942953;35;20002;-84
2022/01/06 01:26:49;;;;;;;36.60;21.20;;;5.30;83.80;;;4.01;79.56;95024.78;3965380;35;20623;-84
2022/01/06 01:29:18;;;;;;;35.78;21.42;;;5.30;84.00;;;4.01;79.59;95031.00;3965916;35;20311;-85
2022/01/06 01:31:55;;;;;;;36.35;20.65;;;5.30;84.00;;;4.01;79.85;95031.00;3980850;35;20017;-85
2022/01/06 01:34:27;;;;;;;36.50;19.80;;;5.30;84.10;;;4.02;79.63;95037.25;3972664;35;20085;-85
2022/01/06 01:36:55;;;;;;;36.30;19.40;;;5.30;84.30;;;3.99;79.91;95047.53;3988815;35;20008;-85
2022/01/06 01:39:23;;;;;;;38.60;21.75;;;5.30;84.10;;;4.01;79.21;95051.88;3988184;35;20086;-85
2022/01/06 01:41:49;;;;;;;35.83;21.23;;;5.30;83.70;;;4.02;79.51;95056.22;3946266;35;20295;-85
2022/01/06 01:44:18;;;;;;;37.83;21.33;;;5.30;83.90;;;4.00;79.42;95051.06;3965059;35;20301;-85
2022/01/06 01:46:58;;;;;;;36.28;19.73;;;5.30;83.70;;;3.99;79.77;95052.94;3988559;35;20700;-85
2022/01/06 01:51:51;;;;;;;36.15;21.17;;;5.20;84.10;;;3.98;79.86;95043.19;3966120;35;20025;-85
2022/01/06 01:54:18;;;;;;;41.10;22.20;;;5.20;84.00;;;3.98;80.14;95047.78;3966496;35;20702;-84
2022/01/06 01:56:44;;;;;;;37.08;21.77;;;5.20;84.20;;;3.99;79.83;95038.59;3986520;35;20093;-84
2022/01/06 01:59:12;;;;;;;37.67;20.95;;;5.20;84.10;;;3.97;79.90;95041.53;3945496;35;20391;-84
2022/01/06 02:01:38;;;;;;;36.60;20.48;;;5.20;84.10;;;3.97;79.46;95044.25;3966428;35;20013;-85
2022/01/06 02:04:05;;;;;;;35.67;19.20;;;5.20;83.80;;;3.98;79.29;95039.66;3994080;34;20709;-86
2022/01/06 02:06:31;;;;;;;38.55;21.17;;;5.20;83.60;;;3.98;79.74;95043.19;3919411;35;20310;-85
2022/01/06 02:08:57;;;;;;;37.03;21.25;;;5.20;84.00;;;3.97;79.42;95051.56;3920380;35;20089;-85
2022/01/06 02:11:23;;;;;;;35.22;19.75;;;5.20;83.50;;;3.97;79.54;95056.97;3963216;34;20163;-85
2022/01/06 02:13:53;;;;;;;37.80;20.85;;;5.20;83.70;;;3.96;79.49;95055.34;3919666;35;20328;-85
2022/01/06 02:16:25;;;;;;;35.40;19.98;;;5.20;83.90;;;3.97;79.45;95051.56;3939566;34;20014;-84
2022/01/06 02:18:52;;;;;;;35.78;20.48;;;5.20;83.70;;;3.97;79.37;95068.63;3919597;35;20491;-85
2022/01/06 02:21:19;;;;;;;34.75;19.77;;;5.20;83.80;;;3.98;79.34;95074.88;3939444;35;20289;-85
2022/01/06 02:23:46;;;;;;;37.95;20.33;;;5.20;83.80;;;3.96;79.83;95066.97;3960988;35;20355;-84
2022/01/06 02:26:12;;;;;;;35.47;19.63;;;5.20;84.00;;;3.96;79.66;95072.41;3939177;35;20046;-85
2022/01/06 02:28:42;;;;;;;38.38;19.95;;;5.20;83.60;;;3.96;79.93;95077.81;3940211;35;20306;-85
2022/01/06 02:31:08;;;;;;;37.45;21.05;;;5.20;83.70;;;3.96;79.83;95083.22;3918598;35;20007;-84
2022/01/06 02:33:36;;;;;;;37.35;21.27;;;5.20;84.10;;;3.95;80.14;95078.88;3935200;35;20732;-85
2022/01/06 02:36:03;;;;;;;38.78;20.15;;;5.20;83.90;;;3.96;80.13;95077.81;3919738;35;20085;-85
2022/01/06 02:38:30;;;;;;;35.70;20.25;;;5.20;84.00;;;3.94;79.79;95082.66;3935887;35;20302;-85
2022/01/06 02:40:56;;;;;;;36.92;20.30;;;5.20;84.00;;;3.96;79.72;95083.22;3959217;34;20014;-85
2022/01/06 02:43:24;;;;;;;33.58;20.30;;;5.20;84.00;;;3.94;79.78;95084.56;3940633;35;20360;-85
2022/01/06 02:45:51;;;;;;;36.42;19.48;;;5.20;84.00;;;3.94;79.84;95079.94;3920109;35;20363;-84
2022/01/06 02:48:17;;;;;;;36.50;19.45;;;5.20;84.00;;;3.94;79.27;95096.19;3961892;34;20258;-84
2022/01/06 02:50:48;;;;;;;37.58;20.05;;;5.20;83.60;;;3.94;79.82;95079.94;3943036;35;20379;-84
2022/01/06 02:53:15;;;;;;;34.50;20.25;;;5.20;83.80;;;3.93;79.80;95089.19;3944654;35;20287;-85
2022/01/06 02:55:50;;;;;;;32.58;19.55;;;5.20;84.00;;;3.95;79.33;95091.63;3985916;35;20741;-85
2022/01/06 02:58:20;;;;;;;33.03;19.70;;;5.20;83.80;;;3.92;79.17;95084.84;3986498;35;20014;-85
2022/01/06 03:00:47;;;;;;;34.15;18.95;;;5.20;83.50;;;3.93;79.50;95088.34;3987275;34;20300;-84
2022/01/06 03:03:13;;;;;;;32.38;19.10;;;5.20;84.60;;;3.93;79.40;95097.31;3990878;34;20351;-84
2022/01/06 03:05:40;;;;;;;35.05;19.88;;;5.20;83.70;;;3.94;79.18;95090.78;3989891;34;20325;-84
2022/01/06 03:08:06;;;;;;;33.00;19.00;;;5.20;83.60;;;3.92;79.81;95084.84;3969172;34;20001;-85
2022/01/06 03:10:36;;;;;;;33.65;18.98;;;5.20;83.60;;;3.91;79.70;95096.75;3971321;35;20041;-84
2022/01/06 03:13:03;;;;;;;31.98;18.90;;;5.20;83.80;;;3.92;79.34;95086.72;3966339;34;20293;-84
2022/01/06 03:15:29;;;;;;;32.42;18.20;;;5.20;83.50;;;3.91;79.44;95085.91;3995621;34;20009;-85
2022/01/06 03:17:56;;;;;;;34.65;19.35;;;5.20;83.50;;;3.92;79.44;95082.13;3989448;34;20307;-85
2022/01/06 03:20:23;;;;;;;31.33;18.42;;;5.20;83.60;;;3.91;79.24;95085.91;3989067;34;20037;-85
2022/01/06 03:22:54;;;;;;;38.05;20.38;;;5.20;83.50;;;3.91;79.04;95091.31;4010687;34;20379;-85
2022/01/06 03:25:20;;;;;;;29.67;18.20;;;5.20;83.40;;;3.91;79.35;95085.06;3989695;34;20102;-85
2022/01/06 03:27:47;;;;;;;32.30;18.35;;;5.20;83.50;;;3.91;79.02;95074.25;3969043;34;20213;-85
2022/01/06 03:30:18;;;;;;;35.72;18.45;;;5.20;83.40;;;3.90;79.35;95075.31;4009178;34;20014;-85
2022/01/06 03:32:45;;;;;;;31.10;17.85;;;5.20;83.50;;;3.90;79.14;95076.16;3988142;34;20393;-85
2022/01/06 03:35:15;;;;;;;36.55;20.38;;;5.20;83.50;;;3.88;79.44;95075.56;3966516;34;20006;-85
2022/01/06 03:37:41;;;;;;;29.50;17.60;;;5.10;83.40;;;3.89;79.43;95079.94;3991153;34;20009;-85
2022/01/06 03:40:09;;;;;;;34.40;19.30;;;5.10;83.40;;;3.88;78.96;95072.88;3963483;34;20562;-85
2022/01/06 03:42:36;;;;;;;33.10;18.85;;;5.10;83.20;;;3.89;78.76;95087.22;3947740;34;20325;-85
2022/01/06 03:45:06;;;;;;;28.60;18.63;;;5.10;83.20;;;3.88;79.05;95091.81;3968277;34;20540;-85
2022/01/06 03:47:33;;;;;;;31.02;17.92;;;5.10;83.30;;;3.89;79.01;95089.91;3968690;34;20359;-86
2022/01/06 03:49:59;;;;;;;34.05;18.42;;;5.10;83.30;;;3.88;79.55;95102.66;3945439;34;20006;-84
2022/01/06 03:52:25;;;;;;;32.50;17.77;;;5.10;83.50;;;3.88;79.19;95112.66;3966005;34;20012;-84
2022/01/06 03:54:52;;;;;;;32.42;17.65;;;5.10;83.20;;;3.89;79.06;95119.69;4008955;34;20377;-85
2022/01/06 03:57:18;;;;;;;34.15;19.10;;;5.10;83.20;;;3.88;78.91;95124.31;3966813;34;19997;-86
2022/01/06 03:59:45;;;;;;;30.58;18.08;;;5.10;83.10;;;3.88;78.96;95132.44;3944751;34;20287;-84
2022/01/06 04:02:11;;;;;;;33.40;18.95;;;5.10;83.20;;;3.87;79.03;95122.69;3986609;34;20296;-85
2022/01/06 04:04:37;;;;;;;32.67;19.02;;;5.10;83.20;;;3.86;79.11;95126.47;3965016;34;20245;-85
2022/01/06 04:07:04;;;;;;;31.05;18.15;;;5.10;83.20;;;3.86;79.16;95126.47;3987770;34;20367;-85
2022/01/06 04:09:31;;;;;;;33.20;18.92;;;5.10;83.10;;;3.87;79.15;95128.09;3987369;34;20395;-85
2022/01/06 04:11:57;;;;;;;29.80;17.58;;;5.10;83.10;;;3.85;79.29;95119.41;3946487;34;20044;-85
2022/01/06 04:14:23;;;;;;;31.20;18.70;;;5.10;83.10;;;3.87;78.85;95119.97;3944964;34;20018;-85
2022/01/06 04:16:57;;;;;;;32.22;17.50;;;5.10;83.00;;;3.86;79.02;95118.34;3945665;34;20315;-85
2022/01/06 04:19:23;;;;;;;27.73;17.20;;;5.10;83.10;;;3.85;78.90;95122.09;3990059;34;20086;-85
2022/01/06 04:21:49;;;;;;;27.55;17.95;;;5.10;83.00;;;3.85;78.39;95130.22;3989642;34;20619;-85
2022/01/06 04:24:16;;;;;;;27.63;18.25;;;5.10;82.90;;;3.85;78.67;95113.97;3988783;34;20378;-85
2022/01/06 04:26:42;;;;;;;29.15;18.33;;;5.10;83.10;;;3.85;78.98;95113.97;3947474;34;20065;-85
2022/01/06 04:29:08;;;;;;;32.08;17.95;;;5.10;83.10;;;3.84;78.85;95123.19;3990029;34;20299;-85
2022/01/06 04:31:35;;;;;;;30.88;17.95;;;5.10;83.20;;;3.83;78.69;95121.53;3947468;34;20340;-85
2022/01/06 04:34:01;;;;;;;27.67;17.52;;;5.10;82.90;;;3.83;78.76;95111.53;4010404;34;20001;-85
2022/01/06 04:36:27;;;;;;;31.38;16.85;;;5.10;82.80;;;3.84;78.93;95123.19;3951465;35;20017;-85
2022/01/06 04:38:54;;;;;;;31.77;18.40;;;5.10;83.00;;;3.84;78.73;95117.75;3922079;34;20373;-86
2022/01/06 04:41:20;;;;;;;28.63;17.27;;;5.10;82.80;;;3.83;78.93;95113.41;3919536;34;20574;-85
2022/01/06 04:43:46;;;;;;;27.30;17.70;;;5.10;83.10;;;3.83;78.59;95130.50;3919245;35;20037;-85
2022/01/06 04:46:12;;;;;;;35.10;18.83;;;5.10;82.90;;;3.82;79.10;95128.03;3920351;35;20010;-85
2022/01/06 04:48:39;;;;;;;31.08;18.17;;;5.10;83.10;;;3.83;79.09;95121.53;3943555;35;20296;-85
2022/01/06 04:51:05;;;;;;;27.63;16.92;;;5.10;83.10;;;3.82;78.90;95130.72;3919441;35;20022;-85
2022/01/06 04:53:31;;;;;;;29.58;18.70;;;5.10;83.00;;;3.82;78.69;95130.72;3919178;35;20013;-85
2022/01/06 04:55:59;;;;;;;29.52;17.90;;;5.10;82.90;;;3.83;78.79;95126.97;3918828;35;20319;-85
2022/01/06 04:58:27;;;;;;;27.63;17.13;;;5.10;83.00;;;3.82;78.70;95133.44;3918755;35;20667;-85
2022/01/06 05:00:54;;;;;;;31.40;17.55;;;5.10;83.00;;;3.81;78.94;95134.50;3918737;35;20322;-85
2022/01/06 05:03:20;;;;;;;30.90;18.23;;;5.10;82.80;;;3.82;79.07;95138.84;3919207;35;20856;-84
2022/01/06 05:05:46;;;;;;;26.02;17.13;;;5.10;83.10;;;3.82;78.68;95136.97;3918341;35;20229;-85
2022/01/06 05:08:12;;;;;;;27.20;17.20;;;5.10;83.00;;;3.81;78.67;95139.91;3960006;35;20331;-85
2022/01/06 05:10:39;;;;;;;27.25;16.42;;;5.10;82.90;;;3.81;78.87;95137.22;3941249;35;20563;-85
2022/01/06 05:13:05;;;;;;;27.05;16.88;;;5.10;83.00;;;3.81;78.61;95145.34;3939439;35;20093;-85
2022/01/06 05:15:31;;;;;;;26.27;16.00;;;5.10;82.90;;;3.82;78.70;95136.16;3916735;35;20309;-85
2022/01/06 05:17:58;;;;;;;27.33;18.15;;;5.10;83.00;;;3.81;78.56;95139.91;3917817;35;20341;-84
2022/01/06 05:20:25;;;;;;;30.08;17.75;;;5.10;82.80;;;3.79;78.40;95142.09;3931732;35;20524;-84
2022/01/06 05:22:55;;;;;;;27.38;16.45;;;5.10;82.70;;;3.79;78.59;95142.09;3952590;34;20398;-85
2022/01/06 05:25:25;;;;;;;32.28;17.25;;;5.10;82.80;;;3.79;78.74;95142.09;3977209;34;20317;-85
2022/01/06 05:27:53;;;;;;;27.27;17.60;;;5.10;83.70;;;3.78;78.69;95138.56;3973090;35;20337;-85
2022/01/06 05:30:20;;;;;;;29.88;18.13;;;5.10;82.70;;;3.80;78.63;95138.31;3951182;35;20225;-85
2022/01/06 05:32:46;;;;;;;27.85;16.70;;;5.10;82.70;;;3.79;78.55;95145.59;3951633;35;20109;-85
2022/01/06 05:35:13;;;;;;;33.65;17.60;;;5.10;82.70;;;3.79;78.39;95142.09;3951893;35;20602;-85
2022/01/06 05:37:39;;;;;;;28.80;18.08;;;5.00;82.50;;;3.78;78.69;95129.63;3975185;35;20290;-85
2022/01/06 05:40:06;;;;;;;28.40;16.70;;;5.00;82.80;;;3.78;78.74;95126.91;3974843;34;20233;-84
2022/01/06 05:42:32;;;;;;;26.52;16.55;;;5.10;82.80;;;3.79;79.04;95133.97;3961104;35;20022;-85
2022/01/06 05:44:58;;;;;;;27.63;16.40;;;5.00;82.70;;;3.79;78.68;95136.69;3950592;35;20753;-86
2022/01/06 05:47:25;;;;;;;27.65;16.63;;;5.00;82.70;;;3.77;78.84;95130.69;3910067;35;20301;-84
2022/01/06 05:49:51;;;;;;;27.08;16.23;;;5.00;82.80;;;3.77;78.66;95133.41;3952435;35;20373;-86
2022/01/06 05:52:17;;;;;;;33.00;17.60;;;5.00;82.80;;;3.77;78.38;95138.81;3951595;34;20071;-86
2022/01/06 05:54:44;;;;;;;28.60;16.02;;;5.00;82.60;;;3.76;78.47;95129.06;3972480;35;20294;-85
2022/01/06 05:57:11;;;;;;;25.80;16.27;;;5.00;82.60;;;3.76;78.70;95129.88;3951064;35;19995;-85
2022/01/06 05:59:37;;;;;;;27.55;17.10;;;5.10;82.80;;;3.77;79.04;95130.69;3889880;35;20337;-85
2022/01/06 06:02:05;;;;;;;24.58;16.30;;;5.00;82.80;;;3.79;78.68;95133.97;3931749;35;20674;-85
2022/01/06 06:04:31;;;;;;;27.08;16.88;;;5.00;83.40;;;3.78;78.87;95129.63;3994614;34;20003;-85
2022/01/06 06:06:57;;;;;;;27.95;17.15;;;5.00;82.70;;;3.78;78.77;95135.84;3913302;35;20011;-85
2022/01/06 06:09:24;;;;;;;28.42;16.00;;;5.00;82.80;;;3.77;78.56;95136.09;3934426;35;20339;-85
2022/01/06 06:11:50;;;;;;;24.73;16.27;;;5.00;82.70;;;3.79;78.74;95147.50;3966968;34;20005;-85
2022/01/06 06:14:16;;;;;;;27.73;15.63;;;5.00;82.70;;;3.78;78.52;95145.88;3944746;34;20299;-85
2022/01/06 06:16:42;;;;;;;26.02;16.48;;;5.00;82.50;;;3.79;78.43;95147.50;3934882;34;20011;-85
2022/01/06 06:19:09;;;;;;;27.73;16.15;;;5.00;82.70;;;3.80;78.33;95143.72;3934895;35;20668;-85
2022/01/06 06:21:35;;;;;;;26.17;15.80;;;5.10;82.70;;;3.80;78.37;95149.16;3935277;35;20017;-85
2022/01/06 06:24:02;;;;;;;26.38;16.92;;;5.10;82.60;;;3.80;78.45;95154.56;3920379;35;20313;-85
2022/01/06 06:26:28;;;;;;;24.65;15.40;;;5.10;82.50;;;3.80;78.16;95149.16;3919117;35;20311;-85
2022/01/06 06:28:54;;;;;;;24.88;16.00;;;5.10;82.30;;;3.81;78.30;95156.16;3913719;35;20005;-86
2022/01/06 06:31:20;;;;;;;25.45;16.05;;;5.10;82.30;;;3.81;77.70;95167.00;3919016;35;20006;-85
2022/01/06 06:33:47;;;;;;;27.63;15.95;;;5.10;82.40;;;3.82;78.34;95174.03;3943741;34;20302;-85
2022/01/06 06:36:13;;;;;;;23.85;16.58;;;5.10;82.50;;;3.80;77.69;95163.47;3985249;34;20010;-86
2022/01/06 06:38:39;;;;;;;27.60;16.55;;;5.10;82.20;;;3.81;78.24;95162.41;3964828;34;20010;-84
2022/01/06 06:41:06;;;;;;;26.95;16.10;;;5.10;82.50;;;3.82;78.41;95165.94;3943522;34;20333;-86
2022/01/06 06:43:32;;;;;;;30.73;16.63;;;5.10;82.40;;;3.82;78.01;95160.50;3965229;34;20329;-86
2022/01/06 06:45:58;;;;;;;23.77;15.65;;;5.10;82.40;;;3.83;78.26;95159.44;3943986;34;20077;-85
2022/01/06 06:48:25;;;;;;;27.05;17.33;;;5.10;82.30;;;3.82;78.13;95165.94;3944093;34;20194;-86
2022/01/06 06:50:51;;;;;;;26.83;17.25;;;5.10;82.30;;;3.82;78.31;95174.03;3965199;34;20358;-86
2022/01/06 06:53:18;;;;;;;30.05;18.00;;;5.10;82.50;;;3.82;78.43;95169.47;3943323;34;20303;-85
2022/01/06 06:55:45;;;;;;;28.58;16.70;;;5.10;82.40;;;3.82;78.02;95172.19;3963482;34;20392;-86
2022/01/06 06:58:11;;;;;;;24.55;16.30;;;5.10;82.40;;;3.82;78.47;95168.63;4000041;29;20013;-88
2022/01/06 07:00:38;;;;;;;28.58;17.38;;;5.10;82.50;;;3.80;78.54;95179.72;4035168;34;20690;-88
2022/01/06 07:03:04;;;;;;;30.35;17.23;;;5.10;82.50;;;3.81;78.54;95177.81;4013402;34;20289;-89
2022/01/06 07:05:30;;;;;;;26.40;18.20;;;5.10;82.50;;;3.82;78.23;95179.47;3969950;34;20016;-90
2022/01/06 07:07:57;;;;;;;25.15;16.10;;;5.10;82.20;;;3.79;78.02;95177.28;3969093;34;20280;-89
2022/01/06 07:10:24;;;;;;;29.50;18.70;;;5.10;82.40;;;3.80;78.22;95181.63;3949385;34;19992;-90
2022/01/06 07:12:51;;;;;;;25.53;16.87;;;5.10;83.10;;;3.78;78.09;95175.66;3950089;34;20308;-89
2022/01/06 07:15:17;;;;;;;26.20;17.20;;;5.10;82.30;;;3.80;78.34;95178.91;3972133;34;20118;-90
2022/01/06 07:17:44;;;;;;;25.27;17.77;;;5.10;82.50;;;3.79;78.22;95190.81;3972456;34;20345;-89
2022/01/06 07:20:11;;;;;;;35.63;20.13;;;5.10;82.50;;;3.78;78.27;95178.34;3968376;34;20105;-90
2022/01/06 07:22:38;;;;;;;29.05;18.77;;;5.10;82.40;;;3.79;78.36;95183.50;3968043;34;19994;-89
2022/01/06 07:25:06;;;;;;;26.30;17.90;;;5.10;82.40;;;3.78;78.43;95192.69;3946818;34;20313;-89
2022/01/06 07:27:32;;;;;;;32.70;19.85;;;5.10;82.40;;;3.79;78.36;95198.94;3968215;34;20357;-89
2022/01/06 07:29:58;;;;;;;30.95;19.33;;;5.10;82.50;;;3.80;78.16;95214.13;3968228;34;20224;-90
2022/01/06 07:32:24;;;;;;;32.22;20.15;;;5.10;82.20;;;3.79;78.07;95198.94;3968426;34;20329;-90
2022/01/06 07:34:52;;;;;;;31.67;21.42;;;5.10;82.40;;;3.81;78.36;95210.31;3967968;34;20306;-89
2022/01/06 07:37:18;;;;;;;33.20;22.40;;;5.10;82.30;;;3.79;78.12;95204.34;3945239;34;20297;-89
2022/01/06 07:39:44;;;;;;;35.50;22.02;;;5.10;82.30;;;3.80;78.21;95206.00;3966407;34;20093;-89
2022/01/06 07:42:11;;;;;;;30.08;21.30;;;5.10;82.40;;;3.78;78.07;95210.84;3967444;34;20216;-89
2022/01/06 07:44:37;;;;;;;31.10;21.48;;;5.10;82.40;;;3.80;78.35;95211.41;3966340;34;20016;-89
2022/01/06 07:47:04;;;;;;;32.97;21.30;;;5.10;82.50;;;3.78;78.48;95202.72;3986818;34;20036;-90
2022/01/06 07:49:30;;;;;;;32.45;21.15;;;5.10;82.40;;;3.79;78.05;95205.16;3966951;34;20001;-89
2022/01/06 07:51:57;;;;;;;35.67;22.02;;;5.10;82.40;;;3.78;78.33;95225.19;3944568;34;20306;-89
2022/01/06 07:54:23;;;;;;;35.42;22.55;;;5.10;82.50;;;3.80;78.30;95220.34;3945622;34;20005;-89
2022/01/06 07:56:50;;;;;;;34.92;22.92;;;5.10;82.50;;;3.78;77.95;95229.78;3967828;34;20209;-90
2022/01/06 07:59:16;;;;;;;34.67;22.70;;;5.10;82.40;;;3.79;78.40;95226.00;3968319;34;19998;-89
2022/01/06 08:01:43;;;;;;;33.97;23.27;;;5.10;82.50;;;3.81;78.46;95237.38;3968296;34;20278;-89
2022/01/06 08:04:09;;;;;;;33.88;23.33;;;5.10;82.50;;;3.80;78.60;95244.69;3968361;34;20198;-90
2022/01/06 08:06:35;;;;;;;37.30;24.75;;;5.10;83.00;;;3.79;78.47;95239.53;3990660;34;20313;-89
2022/01/06 08:09:02;;;;;;;33.47;22.83;;;5.10;82.80;;;3.81;78.49;95240.09;3971488;34;20366;-89
2022/01/06 08:11:28;;;;;;;34.17;23.02;;;5.10;82.50;;;3.79;78.79;95226.81;3971386;34;19986;-89
2022/01/06 08:13:54;;;;;;;36.47;24.60;;;5.10;82.90;;;3.81;78.45;95238.22;3968233;34;20013;-89
2022/01/06 08:16:20;;;;;;;37.70;23.05;;;5.10;82.60;;;3.81;78.17;95231.97;3968601;34;20316;-89
2022/01/06 08:18:47;;;;;;;37.85;24.17;;;5.10;82.40;;;3.82;78.44;95228.19;3968157;34;20723;-88
2022/01/06 08:21:13;;;;;;;35.88;23.65;;;5.10;82.40;;;3.81;78.14;95232.81;3966645;34;20013;-89
2022/01/06 08:23:39;;;;;;;36.35;23.73;;;5.10;82.30;;;3.80;78.18;95225.75;3965242;34;20002;-88
2022/01/06 08:26:06;;;;;;;39.03;25.60;;;5.10;82.40;;;3.81;78.57;95235.50;3938260;34;20306;-89
2022/01/06 08:28:32;;;;;;;37.75;23.83;;;5.10;82.70;;;3.82;78.47;95249.84;3957844;34;20299;-89
2022/01/06 08:30:58;;;;;;;33.70;22.80;;;5.10;82.60;;;3.83;79.05;95262.31;3938228;34;20090;-89
2022/01/06 08:33:25;;;;;;;37.75;24.92;;;5.10;82.70;;;3.84;78.66;95280.19;3938117;34;20310;-89
2022/01/06 08:35:52;;;;;;;41.95;25.95;;;5.10;83.00;;;3.84;79.01;95302.69;3937794;34;20334;-89
2022/01/06 08:38:18;;;;;;;36.22;24.67;;;5.10;83.10;;;3.84;78.86;95312.69;3936565;34;20005;-88
2022/01/06 08:40:45;;;;;;;39.45;25.35;;;5.10;83.00;;;3.84;79.00;95321.66;3955903;34;20345;-89
2022/01/06 08:43:11;;;;;;;35.70;23.70;;;5.10;83.00;;;3.86;79.02;95315.16;3956769;34;20009;-89
2022/01/06 08:45:38;;;;;;;37.13;23.55;;;5.10;83.10;;;3.88;78.73;95313.00;3944563;34;20120;-89
2022/01/06 08:48:04;;;;;;;33.67;23.20;;;5.10;83.00;;;3.85;78.77;95333.28;3976993;34;20291;-89
2022/01/06 08:50:31;;;;;;;34.08;24.63;;;5.20;82.90;;;3.86;78.46;95328.72;3955546;34;20324;-89
2022/01/06 08:52:58;;;;;;;35.15;24.20;;;5.20;83.00;;;3.87;78.95;95325.75;3955589;34;20293;-89
2022/01/06 08:55:26;;;;;;;36.30;23.90;;;5.20;82.90;;;3.87;78.79;95306.78;3961619;34;20321;-89
2022/01/06 08:57:54;;;;;;;34.45;22.48;;;5.20;82.80;;;3.90;78.87;95316.28;3954988;34;20129;-89
2022/01/06 09:00:20;;;;;;;36.90;24.67;;;5.20;83.00;;;3.89;78.92;95337.13;3954375;34;20302;-89
2022/01/06 09:02:46;;;;;;;35.15;23.23;;;5.20;83.00;;;3.88;78.89;95346.34;3955621;34;20009;-89
2022/01/06 09:05:14;;;;;;;39.15;24.88;;;5.20;83.00;;;3.89;79.01;95363.38;3958444;34;20389;-89
2022/01/06 09:07:41;;;;;;;36.42;23.52;;;5.20;82.90;;;3.88;78.82;95365.28;3956427;35;20010;-88
2022/01/06 09:10:08;;;;;;;34.85;24.25;;;5.20;83.00;;;3.87;78.85;95339.28;3937880;35;20001;-88
2022/01/06 09:12:34;;;;;;;36.08;23.90;;;5.20;83.00;;;3.86;78.71;95326.00;3958559;35;20002;-89
2022/01/06 09:15:01;;;;;;;34.90;23.98;;;5.10;83.00;;;3.85;78.69;95336.00;3960671;34;20701;-87
2022/01/06 09:17:27;;;;;;;36.35;23.85;;;5.10;83.10;;;3.85;79.12;95322.44;3945234;34;20028;-88
2022/01/06 09:19:53;;;;;;;34.90;23.83;;;5.10;83.20;;;3.85;78.63;95325.16;3947408;34;20330;-88
2022/01/06 09:22:19;;;;;;;35.38;24.15;;;5.10;83.00;;;3.84;78.81;95329.78;3964490;34;20389;-88
2022/01/06 09:24:47;;;;;;;37.92;23.60;;;5.10;83.10;;;3.84;79.03;95335.19;3959654;34;20275;-88
2022/01/06 09:27:14;;;;;;;37.10;24.17;;;5.10;83.20;;;3.86;78.74;95339.53;3946656;34;20291;-88
2022/01/06 09:29:40;;;;;;;33.70;22.85;;;5.10;83.20;;;3.87;79.11;95323.03;3945474;34;20006;-88
2022/01/06 09:32:07;;;;;;;32.30;22.30;;;5.20;83.20;;;3.88;78.76;95330.09;3987951;34;20009;-88
2022/01/06 09:34:33;;;;;;;32.30;22.33;;;5.20;83.10;;;3.89;78.44;95331.72;3970739;34;20001;-87
2022/01/06 09:36:59;;;;;;;34.83;22.42;;;5.20;83.00;;;3.91;78.97;95315.22;3949488;34;20424;-88
2022/01/06 09:39:26;;;;;;;35.45;23.23;;;5.20;83.00;;;3.93;78.85;95308.50;3967596;34;20302;-88
2022/01/06 09:41:52;;;;;;;34.05;23.52;;;5.20;83.00;;;3.94;78.68;95323.66;3974985;34;20185;-88
2022/01/06 09:44:19;;;;;;;34.85;23.30;;;5.20;82.90;;;3.91;78.96;95324.19;3960865;34;20006;-88
2022/01/06 09:46:46;;;;;;;34.63;24.00;;;5.20;82.80;;;3.94;78.89;95339.91;3987093;34;20460;-88
2022/01/06 09:49:12;;;;;;;32.90;23.15;;;5.20;82.80;;;3.96;78.99;95343.19;3965900;34;20093;-88
2022/01/06 09:51:39;;;;;;;31.40;22.30;;;5.20;82.70;;;3.95;78.45;95346.97;3987247;34;20312;-88
2022/01/06 09:54:07;;;;;;;32.33;22.67;;;5.20;82.70;;;3.96;78.57;95339.66;3986947;34;20057;-88
2022/01/06 09:56:35;;;;;;;35.03;23.25;;;5.20;82.70;;;3.97;78.38;95341.31;3979444;34;20016;-89
2022/01/06 09:59:02;;;;;;;36.75;23.55;;;5.20;82.80;;;3.95;78.80;95333.41;3952539;34;20305;-89
2022/01/06 10:01:28;;;;;;;33.78;22.20;;;5.20;82.70;;;3.95;78.70;95341.53;3994350;34;20291;-89
2022/01/06 10:03:54;;;;;;;32.80;22.48;;;5.20;82.70;;;3.97;78.75;95346.72;3995558;34;20017;-88
2022/01/06 10:06:28;;;;;;;32.72;22.48;;;5.20;82.70;;;3.94;79.03;95334.47;3972865;34;20378;-88
2022/01/06 10:09:05;;;;;;;32.97;21.75;;;5.20;82.70;;;3.95;78.58;95329.91;3972747;34;20081;-89
2022/01/06 10:11:34;;;;;;;31.85;21.65;;;5.20;82.80;;;3.94;78.77;95334.47;3972880;34;20288;-88
2022/01/06 10:14:10;;;;;;;33.58;22.42;;;5.20;82.70;;;3.93;78.87;95338.28;3992924;34;20002;-88
2022/01/06 10:16:45;;;;;;;32.95;21.77;;;5.20;82.80;;;3.91;78.90;95345.00;3963645;34;20002;-89
2022/01/06 10:19:13;;;;;;;31.85;22.23;;;5.20;82.80;;;3.89;78.56;95347.13;3968039;34;20288;-89
2022/01/06 10:21:57;;;;;;;31.77;21.35;;;5.20;82.90;;;3.90;79.01;95359.59;3967751;34;20003;-89
2022/01/06 10:24:26;;;;;;;30.00;21.05;;;5.20;82.90;;;3.90;79.07;95363.16;3949721;34;19998;-88
2022/01/06 10:27:06;;;;;;;30.25;21.25;;;5.20;83.00;;;3.89;78.78;95353.38;3967196;34;20084;-89
2022/01/06 10:29:38;;;;;;;30.30;20.67;;;5.20;83.00;;;3.88;78.66;95357.16;3926257;34;20373;-88